sensor_id;sensor_type;location;lat;lon;timestamp;pressure;altitude;pressure_sealevel;temperature;humidity
72359;BME280;60317;48.880;-0.862;2023-01-23T00:01:38;102051.06;;;19.40;28.04
72359;BME280;60317;48.880;-0.862;2023-01-23T00:04:06;102064.22;;;19.45;28.10
72359;BME280;60317;48.880;-0.862;2023-01-23T00:06:33;102062.81;;;19.53;27.83
72359;BME280;60317;48.880;-0.862;2023-01-23T00:08:59;102047.06;;;19.47;28.08
72359;BME280;60317;48.880;-0.862;2023-01-23T00:11:26;102047.44;;;19.41;28.08
72359;BME280;60317;48.880;-0.862;2023-01-23T00:13:53;102032.28;;;19.40;28.01
72359;BME280;60317;48.880;-0.862;2023-01-23T00:16:20;102034.97;;;19.40;28.05
72359;BME280;60317;48.880;-0.862;2023-01-23T00:18:47;102048.19;;;19.43;28.12
72359;BME280;60317;48.880;-0.862;2023-01-23T00:21:15;102045.34;;;19.46;28.08
72359;BME280;60317;48.880;-0.862;2023-01-23T00:23:42;102046.38;;;19.44;28.08
72359;BME280;60317;48.880;-0.862;2023-01-23T00:26:11;102038.59;;;19.39;28.06
72359;BME280;60317;48.880;-0.862;2023-01-23T00:28:38;102049.34;;;19.39;28.10
72359;BME280;60317;48.880;-0.862;2023-01-23T00:31:05;102046.75;;;19.38;28.15
72359;BME280;60317;48.880;-0.862;2023-01-23T00:33:32;102044.06;;;19.38;28.11
72359;BME280;60317;48.880;-0.862;2023-01-23T00:35:58;102045.78;;;19.39;28.20
72359;BME280;60317;48.880;-0.862;2023-01-23T00:38:26;102036.97;;;19.37;28.11
72359;BME280;60317;48.880;-0.862;2023-01-23T00:40:52;102040.50;;;19.37;28.07
72359;BME280;60317;48.880;-0.862;2023-01-23T00:43:19;102037.91;;;19.36;28.04
72359;BME280;60317;48.880;-0.862;2023-01-23T00:45:45;102046.25;;;19.31;28.22
72359;BME280;60317;48.880;-0.862;2023-01-23T00:48:12;102043.56;;;19.31;28.14
72359;BME280;60317;48.880;-0.862;2023-01-23T00:50:38;102040.69;;;19.34;28.22
72359;BME280;60317;48.880;-0.862;2023-01-23T00:53:05;102042.31;;;19.37;28.06
72359;BME280;60317;48.880;-0.862;2023-01-23T00:55:32;102045.78;;;19.39;28.17
72359;BME280;60317;48.880;-0.862;2023-01-23T00:57:59;102055.66;;;19.38;28.12
72359;BME280;60317;48.880;-0.862;2023-01-23T01:00:25;102055.38;;;19.43;28.11
72359;BME280;60317;48.880;-0.862;2023-01-23T01:05:34;102051.16;;;19.39;28.12
72359;BME280;60317;48.880;-0.862;2023-01-23T01:08:01;102044.94;;;19.38;28.15
72359;BME280;60317;48.880;-0.862;2023-01-23T01:10:27;102046.66;;;19.39;28.14
72359;BME280;60317;48.880;-0.862;2023-01-23T01:12:55;102033.34;;;19.38;28.13
72359;BME280;60317;48.880;-0.862;2023-01-23T01:15:22;102041.69;;;19.47;28.04
72359;BME280;60317;48.880;-0.862;2023-01-23T01:17:48;102036.50;;;19.44;28.10
72359;BME280;60317;48.880;-0.862;2023-01-23T01:20:14;102045.69;;;19.40;28.18
72359;BME280;60317;48.880;-0.862;2023-01-23T01:22:41;102041.34;;;19.53;28.11
72359;BME280;60317;48.880;-0.862;2023-01-23T01:25:07;102046.94;;;19.81;27.72
72359;BME280;60317;48.880;-0.862;2023-01-23T01:27:34;102044.09;;;19.84;27.71
72359;BME280;60317;48.880;-0.862;2023-01-23T01:30:02;102045.94;;;19.97;27.44
72359;BME280;60317;48.880;-0.862;2023-01-23T01:32:28;102045.13;;;20.25;27.17
72359;BME280;60317;48.880;-0.862;2023-01-23T01:34:54;102041.66;;;20.23;27.20
72359;BME280;60317;48.880;-0.862;2023-01-23T01:37:21;102043.31;;;20.40;27.11
72359;BME280;60317;48.880;-0.862;2023-01-23T01:39:47;102039.28;;;20.47;26.89
72359;BME280;60317;48.880;-0.862;2023-01-23T01:42:13;102035.19;;;20.56;26.94
72359;BME280;60317;48.880;-0.862;2023-01-23T01:44:51;102035.97;;;20.58;26.82
72359;BME280;60317;48.880;-0.862;2023-01-23T01:47:19;102040.84;;;20.66;26.71
72359;BME280;60317;48.880;-0.862;2023-01-23T01:49:45;102034.25;;;20.71;26.74
72359;BME280;60317;48.880;-0.862;2023-01-23T01:57:26;102040.47;;;20.86;26.46
72359;BME280;60317;48.880;-0.862;2023-01-23T01:59:55;102035.97;;;20.72;26.63
72359;BME280;60317;48.880;-0.862;2023-01-23T02:02:25;102039.13;;;20.79;26.55
72359;BME280;60317;48.880;-0.862;2023-01-23T02:07:31;102040.06;;;20.92;26.52
72359;BME280;60317;48.880;-0.862;2023-01-23T02:09:59;102032.75;;;20.94;26.48
72359;BME280;60317;48.880;-0.862;2023-01-23T02:12:27;102033.50;;;21.11;26.24
72359;BME280;60317;48.880;-0.862;2023-01-23T02:14:53;102029.03;;;21.24;26.03
72359;BME280;60317;48.880;-0.862;2023-01-23T02:17:20;102027.88;;;21.28;26.00
72359;BME280;60317;48.880;-0.862;2023-01-23T02:19:51;102023.09;;;21.19;26.12
72359;BME280;60317;48.880;-0.862;2023-01-23T02:22:24;102025.19;;;21.28;26.01
72359;BME280;60317;48.880;-0.862;2023-01-23T02:24:53;102024.47;;;21.12;25.99
72359;BME280;60317;48.880;-0.862;2023-01-23T02:27:25;102024.00;;;21.05;26.15
72359;BME280;60317;48.880;-0.862;2023-01-23T02:29:51;102033.63;;;21.36;25.81
72359;BME280;60317;48.880;-0.862;2023-01-23T02:32:18;102028.38;;;21.35;25.72
72359;BME280;60317;48.880;-0.862;2023-01-23T02:37:12;102031.56;;;21.13;26.18
72359;BME280;60317;48.880;-0.862;2023-01-23T02:39:38;102040.84;;;21.36;25.77
72359;BME280;60317;48.880;-0.862;2023-01-23T02:42:05;102039.38;;;21.30;25.93
72359;BME280;60317;48.880;-0.862;2023-01-23T02:44:33;102040.19;;;21.18;25.85
72359;BME280;60317;48.880;-0.862;2023-01-23T02:47:00;102042.69;;;21.21;26.16
72359;BME280;60317;48.880;-0.862;2023-01-23T02:49:27;102053.31;;;21.23;25.84
72359;BME280;60317;48.880;-0.862;2023-01-23T02:51:53;102054.56;;;21.31;25.79
72359;BME280;60317;48.880;-0.862;2023-01-23T02:54:20;102066.19;;;21.32;25.91
72359;BME280;60317;48.880;-0.862;2023-01-23T02:56:46;102063.69;;;21.43;25.82
72359;BME280;60317;48.880;-0.862;2023-01-23T02:59:13;102060.44;;;21.38;26.02
72359;BME280;60317;48.880;-0.862;2023-01-23T03:01:40;102060.97;;;21.70;25.49
72359;BME280;60317;48.880;-0.862;2023-01-23T03:04:07;102059.72;;;21.49;25.73
72359;BME280;60317;48.880;-0.862;2023-01-23T03:06:36;102064.34;;;21.47;25.74
72359;BME280;60317;48.880;-0.862;2023-01-23T03:11:46;102061.59;;;21.61;25.59
72359;BME280;60317;48.880;-0.862;2023-01-23T03:14:13;102059.56;;;21.64;25.40
72359;BME280;60317;48.880;-0.862;2023-01-23T03:19:19;102047.41;;;21.44;25.63
72359;BME280;60317;48.880;-0.862;2023-01-23T03:24:20;102050.50;;;21.53;25.67
72359;BME280;60317;48.880;-0.862;2023-01-23T03:26:47;102047.16;;;21.62;25.53
72359;BME280;60317;48.880;-0.862;2023-01-23T03:29:13;102057.50;;;21.55;25.61
72359;BME280;60317;48.880;-0.862;2023-01-23T03:31:40;102063.09;;;21.65;25.37
72359;BME280;60317;48.880;-0.862;2023-01-23T03:34:07;102054.03;;;21.80;25.28
72359;BME280;60317;48.880;-0.862;2023-01-23T03:36:35;102059.34;;;21.67;25.45
72359;BME280;60317;48.880;-0.862;2023-01-23T03:39:02;102071.91;;;21.54;25.59
72359;BME280;60317;48.880;-0.862;2023-01-23T03:41:28;102065.34;;;21.58;25.40
72359;BME280;60317;48.880;-0.862;2023-01-23T03:43:55;102068.81;;;21.60;25.36
72359;BME280;60317;48.880;-0.862;2023-01-23T03:46:21;102073.00;;;21.64;25.42
72359;BME280;60317;48.880;-0.862;2023-01-23T03:48:47;102071.84;;;21.68;25.42
72359;BME280;60317;48.880;-0.862;2023-01-23T03:51:14;102064.53;;;21.71;25.47
72359;BME280;60317;48.880;-0.862;2023-01-23T03:53:42;102060.59;;;21.76;25.18
72359;BME280;60317;48.880;-0.862;2023-01-23T03:56:08;102068.69;;;21.62;25.37
72359;BME280;60317;48.880;-0.862;2023-01-23T03:58:34;102066.19;;;21.86;25.32
72359;BME280;60317;48.880;-0.862;2023-01-23T04:01:04;102053.66;;;21.72;25.44
72359;BME280;60317;48.880;-0.862;2023-01-23T04:03:30;102055.81;;;21.67;25.40
72359;BME280;60317;48.880;-0.862;2023-01-23T04:05:57;102057.13;;;21.74;25.40
72359;BME280;60317;48.880;-0.862;2023-01-23T04:08:23;102060.97;;;21.70;25.25
72359;BME280;60317;48.880;-0.862;2023-01-23T04:10:51;102056.78;;;21.66;25.31
72359;BME280;60317;48.880;-0.862;2023-01-23T04:13:25;102059.84;;;21.87;25.23
72359;BME280;60317;48.880;-0.862;2023-01-23T04:15:51;102061.13;;;21.81;25.20
72359;BME280;60317;48.880;-0.862;2023-01-23T04:18:18;102054.44;;;21.74;25.13
72359;BME280;60317;48.880;-0.862;2023-01-23T04:20:44;102062.97;;;21.93;25.17
72359;BME280;60317;48.880;-0.862;2023-01-23T04:23:10;102060.84;;;21.99;24.86
72359;BME280;60317;48.880;-0.862;2023-01-23T04:25:37;102067.88;;;21.74;25.30
72359;BME280;60317;48.880;-0.862;2023-01-23T04:28:04;102060.59;;;21.76;25.22
72359;BME280;60317;48.880;-0.862;2023-01-23T04:30:31;102073.78;;;21.66;25.26
72359;BME280;60317;48.880;-0.862;2023-01-23T04:32:57;102073.25;;;21.74;25.23
72359;BME280;60317;48.880;-0.862;2023-01-23T04:35:24;102074.03;;;21.76;25.21
72359;BME280;60317;48.880;-0.862;2023-01-23T04:37:50;102069.31;;;21.92;24.99
72359;BME280;60317;48.880;-0.862;2023-01-23T04:40:17;102074.91;;;21.77;25.02
72359;BME280;60317;48.880;-0.862;2023-01-23T04:42:43;102079.50;;;21.75;24.97
72359;BME280;60317;48.880;-0.862;2023-01-23T04:45:11;102070.38;;;21.77;25.24
72359;BME280;60317;48.880;-0.862;2023-01-23T04:47:38;102077.97;;;21.98;24.72
72359;BME280;60317;48.880;-0.862;2023-01-23T04:50:04;102079.47;;;22.02;24.88
72359;BME280;60317;48.880;-0.862;2023-01-23T04:52:30;102082.69;;;21.94;24.96
72359;BME280;60317;48.880;-0.862;2023-01-23T04:54:57;102081.25;;;21.88;24.91
72359;BME280;60317;48.880;-0.862;2023-01-23T04:57:23;102080.28;;;21.89;25.10
72359;BME280;60317;48.880;-0.862;2023-01-23T04:59:49;102069.97;;;21.83;25.04
72359;BME280;60317;48.880;-0.862;2023-01-23T05:02:17;102072.22;;;21.89;24.80
72359;BME280;60317;48.880;-0.862;2023-01-23T05:04:44;102076.22;;;21.97;24.73
72359;BME280;60317;48.880;-0.862;2023-01-23T05:09:40;102078.38;;;21.91;24.98
72359;BME280;60317;48.880;-0.862;2023-01-23T05:12:06;102082.84;;;21.78;25.08
72359;BME280;60317;48.880;-0.862;2023-01-23T05:14:33;102091.91;;;21.90;24.93
72359;BME280;60317;48.880;-0.862;2023-01-23T05:16:59;102079.75;;;21.84;24.95
72359;BME280;60317;48.880;-0.862;2023-01-23T05:19:27;102073.72;;;21.81;24.89
72359;BME280;60317;48.880;-0.862;2023-01-23T05:21:53;102076.00;;;22.00;24.80
72359;BME280;60317;48.880;-0.862;2023-01-23T05:24:20;102075.81;;;22.03;24.87
72359;BME280;60317;48.880;-0.862;2023-01-23T05:29:30;102076.03;;;22.12;24.72
72359;BME280;60317;48.880;-0.862;2023-01-23T05:31:56;102076.66;;;21.90;24.83
72359;BME280;60317;48.880;-0.862;2023-01-23T05:34:22;102082.31;;;21.86;24.96
72359;BME280;60317;48.880;-0.862;2023-01-23T05:36:50;102074.50;;;21.96;24.83
72359;BME280;60317;48.880;-0.862;2023-01-23T05:39:16;102082.44;;;21.84;24.94
72359;BME280;60317;48.880;-0.862;2023-01-23T05:41:43;102087.81;;;21.84;24.84
72359;BME280;60317;48.880;-0.862;2023-01-23T05:44:09;102089.47;;;22.00;24.86
72359;BME280;60317;48.880;-0.862;2023-01-23T05:46:36;102091.72;;;21.93;24.86
72359;BME280;60317;48.880;-0.862;2023-01-23T05:49:02;102085.25;;;21.96;24.85
72359;BME280;60317;48.880;-0.862;2023-01-23T05:51:29;102085.88;;;21.86;25.21
72359;BME280;60317;48.880;-0.862;2023-01-23T05:53:57;102089.09;;;21.79;25.35
72359;BME280;60317;48.880;-0.862;2023-01-23T05:56:23;102087.81;;;21.84;25.43
72359;BME280;60317;48.880;-0.862;2023-01-23T05:58:50;102085.59;;;21.91;25.37
72359;BME280;60317;48.880;-0.862;2023-01-23T06:03:45;102092.38;;;21.97;25.52
72359;BME280;60317;48.880;-0.862;2023-01-23T06:06:12;102095.72;;;22.00;25.64
72359;BME280;60317;48.880;-0.862;2023-01-23T06:08:38;102084.28;;;21.97;25.84
72359;BME280;60317;48.880;-0.862;2023-01-23T06:11:06;102092.69;;;21.92;25.82
72359;BME280;60317;48.880;-0.862;2023-01-23T06:13:33;102079.09;;;21.93;25.99
72359;BME280;60317;48.880;-0.862;2023-01-23T06:18:46;102089.38;;;22.01;25.79
72359;BME280;60317;48.880;-0.862;2023-01-23T06:21:12;102095.25;;;21.93;25.97
72359;BME280;60317;48.880;-0.862;2023-01-23T06:23:39;102087.66;;;22.13;25.82
72359;BME280;60317;48.880;-0.862;2023-01-23T06:26:06;102089.97;;;22.32;25.50
72359;BME280;60317;48.880;-0.862;2023-01-23T06:28:33;102092.16;;;21.04;28.59
72359;BME280;60317;48.880;-0.862;2023-01-23T06:33:51;102097.56;;;20.61;29.56
72359;BME280;60317;48.880;-0.862;2023-01-23T06:36:18;102090.41;;;20.46;33.52
72359;BME280;60317;48.880;-0.862;2023-01-23T06:38:44;102091.44;;;20.15;32.70
72359;BME280;60317;48.880;-0.862;2023-01-23T06:41:12;102090.78;;;19.95;31.60
72359;BME280;60317;48.880;-0.862;2023-01-23T06:43:38;102089.41;;;19.88;30.12
72359;BME280;60317;48.880;-0.862;2023-01-23T06:46:06;102091.50;;;20.13;31.03
72359;BME280;60317;48.880;-0.862;2023-01-23T06:51:21;102089.66;;;21.57;28.59
72359;BME280;60317;48.880;-0.862;2023-01-23T06:53:48;102093.88;;;22.01;27.50
72359;BME280;60317;48.880;-0.862;2023-01-23T06:56:16;102100.69;;;22.06;27.28
72359;BME280;60317;48.880;-0.862;2023-01-23T06:58:42;102105.88;;;22.09;27.03
72359;BME280;60317;48.880;-0.862;2023-01-23T07:01:09;102099.63;;;22.09;26.92
72359;BME280;60317;48.880;-0.862;2023-01-23T07:03:36;102099.25;;;22.01;26.74
72359;BME280;60317;48.880;-0.862;2023-01-23T07:06:03;102092.69;;;21.92;26.87
72359;BME280;60317;48.880;-0.862;2023-01-23T07:08:29;102094.13;;;21.98;26.79
72359;BME280;60317;48.880;-0.862;2023-01-23T07:10:55;102095.91;;;21.97;26.53
72359;BME280;60317;48.880;-0.862;2023-01-23T07:16:01;102094.03;;;22.12;26.45
72359;BME280;60317;48.880;-0.862;2023-01-23T07:18:27;102102.31;;;22.09;26.25
72359;BME280;60317;48.880;-0.862;2023-01-23T07:20:54;102094.66;;;22.03;26.27
72359;BME280;60317;48.880;-0.862;2023-01-23T07:23:20;102104.50;;;22.17;26.09
72359;BME280;60317;48.880;-0.862;2023-01-23T07:25:47;102096.28;;;22.05;26.13
72359;BME280;60317;48.880;-0.862;2023-01-23T07:28:13;102104.16;;;22.08;26.32
72359;BME280;60317;48.880;-0.862;2023-01-23T07:30:39;102105.03;;;21.82;26.73
72359;BME280;60317;48.880;-0.862;2023-01-23T07:33:07;102106.16;;;21.92;26.31
72359;BME280;60317;48.880;-0.862;2023-01-23T07:35:34;102100.81;;;22.05;26.44
72359;BME280;60317;48.880;-0.862;2023-01-23T07:38:03;102106.19;;;22.05;26.46
72359;BME280;60317;48.880;-0.862;2023-01-23T07:40:29;102110.19;;;22.12;26.58
72359;BME280;60317;48.880;-0.862;2023-01-23T07:42:55;102108.19;;;22.15;26.61
72359;BME280;60317;48.880;-0.862;2023-01-23T07:45:22;102118.63;;;22.20;26.58
72359;BME280;60317;48.880;-0.862;2023-01-23T07:47:48;102111.44;;;22.33;26.50
72359;BME280;60317;48.880;-0.862;2023-01-23T07:52:51;102112.50;;;22.31;26.62
72359;BME280;60317;48.880;-0.862;2023-01-23T07:55:17;102118.31;;;22.37;26.61
72359;BME280;60317;48.880;-0.862;2023-01-23T07:57:51;102125.66;;;22.48;26.96
72359;BME280;60317;48.880;-0.862;2023-01-23T08:00:19;102121.56;;;22.30;27.06
72359;BME280;60317;48.880;-0.862;2023-01-23T08:02:49;102121.44;;;22.31;27.18
72359;BME280;60317;48.880;-0.862;2023-01-23T08:05:16;102125.00;;;22.45;27.24
72359;BME280;60317;48.880;-0.862;2023-01-23T08:07:42;102127.41;;;22.62;27.09
72359;BME280;60317;48.880;-0.862;2023-01-23T08:10:10;102129.22;;;22.61;27.12
72359;BME280;60317;48.880;-0.862;2023-01-23T08:12:37;102130.75;;;22.66;27.15
72359;BME280;60317;48.880;-0.862;2023-01-23T08:15:04;102131.38;;;22.56;27.31
72359;BME280;60317;48.880;-0.862;2023-01-23T08:17:30;102139.88;;;22.63;27.22
72359;BME280;60317;48.880;-0.862;2023-01-23T08:19:57;102138.38;;;22.59;27.26
72359;BME280;60317;48.880;-0.862;2023-01-23T08:22:23;102148.41;;;22.57;27.30
72359;BME280;60317;48.880;-0.862;2023-01-23T08:24:50;102152.53;;;22.75;27.36
72359;BME280;60317;48.880;-0.862;2023-01-23T08:27:17;102148.31;;;22.58;27.38
72359;BME280;60317;48.880;-0.862;2023-01-23T08:29:44;102154.75;;;22.56;27.51
72359;BME280;60317;48.880;-0.862;2023-01-23T08:34:38;102158.53;;;22.53;27.39
72359;BME280;60317;48.880;-0.862;2023-01-23T08:37:04;102156.28;;;22.60;27.32
72359;BME280;60317;48.880;-0.862;2023-01-23T08:39:31;102155.75;;;22.55;27.48
72359;BME280;60317;48.880;-0.862;2023-01-23T08:41:57;102157.47;;;22.56;27.43
72359;BME280;60317;48.880;-0.862;2023-01-23T08:44:25;102152.06;;;22.56;27.37
72359;BME280;60317;48.880;-0.862;2023-01-23T08:46:51;102150.88;;;22.60;27.37
72359;BME280;60317;48.880;-0.862;2023-01-23T08:49:18;102143.56;;;21.82;27.50
72359;BME280;60317;48.880;-0.862;2023-01-23T08:51:44;102141.69;;;21.97;28.18
72359;BME280;60317;48.880;-0.862;2023-01-23T08:54:10;102142.91;;;22.46;27.49
72359;BME280;60317;48.880;-0.862;2023-01-23T08:56:37;102146.44;;;22.33;27.50
72359;BME280;60317;48.880;-0.862;2023-01-23T08:59:03;102146.25;;;22.09;28.32
72359;BME280;60317;48.880;-0.862;2023-01-23T09:01:31;102145.59;;;22.33;28.02
72359;BME280;60317;48.880;-0.862;2023-01-23T09:03:58;102149.91;;;22.86;27.27
72359;BME280;60317;48.880;-0.862;2023-01-23T09:06:24;102149.63;;;23.04;26.80
72359;BME280;60317;48.880;-0.862;2023-01-23T09:08:50;102146.72;;;23.07;26.64
72359;BME280;60317;48.880;-0.862;2023-01-23T09:11:17;102145.78;;;23.32;26.33
72359;BME280;60317;48.880;-0.862;2023-01-23T09:13:44;102144.22;;;22.78;26.56
72359;BME280;60317;48.880;-0.862;2023-01-23T09:16:10;102151.13;;;22.82;26.64
72359;BME280;60317;48.880;-0.862;2023-01-23T09:18:38;102147.44;;;22.83;26.79
72359;BME280;60317;48.880;-0.862;2023-01-23T09:21:05;102144.75;;;22.71;26.51
72359;BME280;60317;48.880;-0.862;2023-01-23T09:23:34;102150.41;;;22.15;27.36
72359;BME280;60317;48.880;-0.862;2023-01-23T09:26:02;102150.59;;;22.12;27.18
72359;BME280;60317;48.880;-0.862;2023-01-23T09:28:28;102152.94;;;22.69;26.52
72359;BME280;60317;48.880;-0.862;2023-01-23T09:30:55;102165.16;;;23.00;26.10
72359;BME280;60317;48.880;-0.862;2023-01-23T09:33:21;102163.84;;;23.06;26.02
72359;BME280;60317;48.880;-0.862;2023-01-23T09:38:17;102159.00;;;22.98;25.98
72359;BME280;60317;48.880;-0.862;2023-01-23T09:40:44;102160.09;;;22.96;25.93
72359;BME280;60317;48.880;-0.862;2023-01-23T09:43:14;102163.44;;;22.99;25.88
72359;BME280;60317;48.880;-0.862;2023-01-23T09:45:42;102161.44;;;22.37;26.81
72359;BME280;60317;48.880;-0.862;2023-01-23T09:48:15;102165.06;;;21.97;27.39
72359;BME280;60317;48.880;-0.862;2023-01-23T09:53:21;102180.88;;;22.81;26.12
72359;BME280;60317;48.880;-0.862;2023-01-23T09:55:48;102173.97;;;22.90;25.94
72359;BME280;60317;48.880;-0.862;2023-01-23T09:58:17;102182.41;;;22.98;26.01
72359;BME280;60317;48.880;-0.862;2023-01-23T10:00:44;102190.59;;;23.09;25.75
72359;BME280;60317;48.880;-0.862;2023-01-23T10:03:11;102184.75;;;23.15;25.69
72359;BME280;60317;48.880;-0.862;2023-01-23T10:05:39;102195.13;;;23.08;25.71
72359;BME280;60317;48.880;-0.862;2023-01-23T10:08:11;102199.44;;;23.24;25.64
72359;BME280;60317;48.880;-0.862;2023-01-23T10:10:47;102190.66;;;22.56;26.57
72359;BME280;60317;48.880;-0.862;2023-01-23T10:18:14;102196.06;;;22.69;26.10
72359;BME280;60317;48.880;-0.862;2023-01-23T10:20:48;102200.38;;;22.84;25.95
72359;BME280;60317;48.880;-0.862;2023-01-23T10:23:19;102206.59;;;22.99;25.77
72359;BME280;60317;48.880;-0.862;2023-01-23T10:25:49;102212.38;;;23.06;25.78
72359;BME280;60317;48.880;-0.862;2023-01-23T10:28:16;102214.00;;;23.08;25.69
72359;BME280;60317;48.880;-0.862;2023-01-23T10:33:13;102219.41;;;23.21;25.67
72359;BME280;60317;48.880;-0.862;2023-01-23T10:35:43;102220.75;;;22.50;26.55
72359;BME280;60317;48.880;-0.862;2023-01-23T10:38:11;102218.09;;;22.09;27.02
72359;BME280;60317;48.880;-0.862;2023-01-23T10:40:46;102216.16;;;22.38;26.49
72359;BME280;60317;48.880;-0.862;2023-01-23T10:43:15;102213.22;;;22.81;26.05
72359;BME280;60317;48.880;-0.862;2023-01-23T10:45:42;102227.97;;;22.88;25.91
72359;BME280;60317;48.880;-0.862;2023-01-23T10:50:45;102218.00;;;23.03;25.71
72359;BME280;60317;48.880;-0.862;2023-01-23T10:53:16;102207.22;;;23.03;25.76
72359;BME280;60317;48.880;-0.862;2023-01-23T10:55:44;102202.34;;;23.08;25.71
72359;BME280;60317;48.880;-0.862;2023-01-23T10:58:20;102203.34;;;22.94;25.92
72359;BME280;60317;48.880;-0.862;2023-01-23T11:00:50;102198.03;;;22.27;26.92
72359;BME280;60317;48.880;-0.862;2023-01-23T11:03:23;102199.41;;;22.20;26.87
72359;BME280;60317;48.880;-0.862;2023-01-23T11:05:52;102188.53;;;22.87;26.01
72359;BME280;60317;48.880;-0.862;2023-01-23T11:08:24;102188.34;;;23.03;25.82
72359;BME280;60317;48.880;-0.862;2023-01-23T11:13:42;102185.81;;;22.87;26.08
72359;BME280;60317;48.880;-0.862;2023-01-23T11:16:11;102178.31;;;23.05;25.88
72359;BME280;60317;48.880;-0.862;2023-01-23T11:18:39;102183.47;;;23.08;25.87
72359;BME280;60317;48.880;-0.862;2023-01-23T11:21:05;102181.56;;;23.10;25.77
72359;BME280;60317;48.880;-0.862;2023-01-23T11:23:32;102176.75;;;22.62;26.36
72359;BME280;60317;48.880;-0.862;2023-01-23T11:25:58;102162.91;;;22.16;27.14
72359;BME280;60317;48.880;-0.862;2023-01-23T11:28:26;102167.03;;;22.34;27.04
72359;BME280;60317;48.880;-0.862;2023-01-23T11:30:54;102165.13;;;22.87;26.19
72359;BME280;60317;48.880;-0.862;2023-01-23T11:33:41;102163.84;;;23.06;26.00
72359;BME280;60317;48.880;-0.862;2023-01-23T11:36:12;102161.78;;;23.09;25.79
72359;BME280;60317;48.880;-0.862;2023-01-23T11:38:46;102159.75;;;23.13;25.86
72359;BME280;60317;48.880;-0.862;2023-01-23T11:41:18;102154.66;;;23.21;25.77
72359;BME280;60317;48.880;-0.862;2023-01-23T11:43:46;102146.44;;;23.23;25.75
72359;BME280;60317;48.880;-0.862;2023-01-23T11:46:19;102146.69;;;22.69;26.68
72359;BME280;60317;48.880;-0.862;2023-01-23T11:48:54;102139.84;;;22.25;27.26
72359;BME280;60317;48.880;-0.862;2023-01-23T11:51:23;102138.13;;;22.24;27.09
72359;BME280;60317;48.880;-0.862;2023-01-23T11:53:57;102141.75;;;23.01;26.12
72359;BME280;60317;48.880;-0.862;2023-01-23T11:56:38;102134.34;;;23.28;25.89
72359;BME280;60317;48.880;-0.862;2023-01-23T11:59:13;102137.50;;;23.22;25.84
72359;BME280;60317;48.880;-0.862;2023-01-23T12:01:47;102139.78;;;23.16;26.12
72359;BME280;60317;48.880;-0.862;2023-01-23T12:12:02;102135.78;;;22.70;26.63
72359;BME280;60317;48.880;-0.862;2023-01-23T12:14:32;102132.94;;;22.21;27.50
72359;BME280;60317;48.880;-0.862;2023-01-23T12:17:07;102138.91;;;22.38;27.05
72359;BME280;60317;48.880;-0.862;2023-01-23T12:19:42;102145.06;;;22.92;26.49
72359;BME280;60317;48.880;-0.862;2023-01-23T12:22:16;102132.00;;;23.24;25.99
72359;BME280;60317;48.880;-0.862;2023-01-23T12:24:48;102130.88;;;23.39;25.72
72359;BME280;60317;48.880;-0.862;2023-01-23T12:27:19;102126.50;;;22.74;26.70
72359;BME280;60317;48.880;-0.862;2023-01-23T12:29:53;102126.84;;;22.44;27.27
72359;BME280;60317;48.880;-0.862;2023-01-23T12:32:32;102129.00;;;22.52;27.32
72359;BME280;60317;48.880;-0.862;2023-01-23T12:35:03;102132.03;;;22.47;27.47
72359;BME280;60317;48.880;-0.862;2023-01-23T12:37:42;102128.16;;;22.51;27.50
72359;BME280;60317;48.880;-0.862;2023-01-23T12:40:12;102129.88;;;22.65;27.42
72359;BME280;60317;48.880;-0.862;2023-01-23T12:42:43;102118.44;;;22.49;27.71
72359;BME280;60317;48.880;-0.862;2023-01-23T12:45:16;102119.63;;;22.70;27.74
72359;BME280;60317;48.880;-0.862;2023-01-23T12:47:49;102116.16;;;22.81;27.62
72359;BME280;60317;48.880;-0.862;2023-01-23T12:50:18;102111.97;;;22.77;27.72
72359;BME280;60317;48.880;-0.862;2023-01-23T12:55:21;102104.09;;;22.86;27.95
72359;BME280;60317;48.880;-0.862;2023-01-23T12:57:50;102107.97;;;22.82;28.15
72359;BME280;60317;48.880;-0.862;2023-01-23T13:00:30;102096.00;;;22.86;28.22
72359;BME280;60317;48.880;-0.862;2023-01-23T13:03:07;102097.00;;;22.85;28.34
72359;BME280;60317;48.880;-0.862;2023-01-23T13:05:42;102085.47;;;22.96;28.29
72359;BME280;60317;48.880;-0.862;2023-01-23T13:08:13;102089.31;;;23.05;28.04
72359;BME280;60317;48.880;-0.862;2023-01-23T13:10:53;102084.38;;;22.86;28.29
72359;BME280;60317;48.880;-0.862;2023-01-23T13:13:24;102075.75;;;21.90;29.25
72359;BME280;60317;48.880;-0.862;2023-01-23T13:16:02;102075.47;;;21.95;29.20
72359;BME280;60317;48.880;-0.862;2023-01-23T13:18:30;102082.00;;;21.78;29.40
72359;BME280;60317;48.880;-0.862;2023-01-23T13:20:58;102087.63;;;21.87;29.17
72359;BME280;60317;48.880;-0.862;2023-01-23T13:23:25;102089.75;;;22.35;28.84
72359;BME280;60317;48.880;-0.862;2023-01-23T13:28:39;102076.41;;;22.72;28.59
72359;BME280;60317;48.880;-0.862;2023-01-23T13:31:22;102080.94;;;22.97;28.23
72359;BME280;60317;48.880;-0.862;2023-01-23T13:33:51;102076.50;;;22.96;28.06
72359;BME280;60317;48.880;-0.862;2023-01-23T13:36:26;102078.44;;;22.94;28.24
72359;BME280;60317;48.880;-0.862;2023-01-23T13:39:03;102066.38;;;22.99;28.23
72359;BME280;60317;48.880;-0.862;2023-01-23T13:41:30;102058.91;;;23.03;28.40
72359;BME280;60317;48.880;-0.862;2023-01-23T13:44:00;102054.25;;;23.05;28.46
72359;BME280;60317;48.880;-0.862;2023-01-23T13:46:29;102052.81;;;23.12;28.29
72359;BME280;60317;48.880;-0.862;2023-01-23T13:48:59;102049.06;;;23.15;28.30
72359;BME280;60317;48.880;-0.862;2023-01-23T13:51:44;102045.72;;;23.11;28.43
72359;BME280;60317;48.880;-0.862;2023-01-23T13:54:25;102047.75;;;23.20;28.48
72359;BME280;60317;48.880;-0.862;2023-01-23T13:57:06;102054.75;;;21.82;29.54
72359;BME280;60317;48.880;-0.862;2023-01-23T13:59:47;102052.06;;;21.42;30.23
72359;BME280;60317;48.880;-0.862;2023-01-23T14:02:30;102052.56;;;21.35;30.48